Time;durP1;ratioP1;P1;durP2;ratioP2;P2;SDS_P1;SDS_P2;PMS_P1;PMS_P2;Temp;Humidity;BMP_temperature;BMP_pressure;BME280_temperature;BME280_humidity;BME280_pressure;Samples;Min_cycle;Max_cycle;Signal;HPM_P1;HPM_P2
2023/12/05 00:01:20;;;;;;;27.90;15.27;;;;;;;;;;5011028;28;20048;-81
2023/12/05 00:04:04;;;;;;;27.63;14.85;;;;;;;;;;5010973;28;20109;-81
2023/12/05 00:06:49;;;;;;;27.30;15.50;;;;;;;;;;5012116;28;20037;-80
2023/12/05 00:09:33;;;;;;;25.65;14.50;;;;;;;;;;5012043;28;20560;-81
2023/12/05 00:12:18;;;;;;;27.52;14.23;;;;;;;;;;5011135;28;20041;-80
2023/12/05 00:15:03;;;;;;;23.23;14.70;;;;;;;;;;5011546;28;20045;-81
2023/12/05 00:17:48;;;;;;;27.25;15.32;;;;;;;;;;5011105;28;20049;-81
2023/12/05 00:20:32;;;;;;;26.10;15.00;;;;;;;;;;4997024;28;20053;-81
2023/12/05 00:23:17;;;;;;;24.80;15.13;;;;;;;;;;5011758;28;20422;-80
2023/12/05 00:26:02;;;;;;;27.50;14.52;;;;;;;;;;5011223;28;20445;-80
2023/12/05 00:28:46;;;;;;;23.27;13.10;;;;;;;;;;5011911;28;20180;-80
2023/12/05 00:31:31;;;;;;;24.95;14.98;;;;;;;;;;5011929;28;20036;-81
2023/12/05 00:34:15;;;;;;;27.20;15.88;;;;;;;;;;5009473;28;20116;-81
2023/12/05 00:37:00;;;;;;;26.88;15.52;;;;;;;;;;5011337;28;20455;-81
2023/12/05 00:39:44;;;;;;;26.25;14.10;;;;;;;;;;5011611;28;20044;-80
2023/12/05 00:42:29;;;;;;;28.88;15.82;;;;;;;;;;5010844;28;20498;-81
2023/12/05 00:45:14;;;;;;;26.77;15.93;;;;;;;;;;5010201;28;20049;-81
2023/12/05 00:47:58;;;;;;;28.25;15.90;;;;;;;;;;5010986;28;20083;-81
2023/12/05 00:50:43;;;;;;;30.27;16.38;;;;;;;;;;5011648;28;20049;-80
2023/12/05 00:53:27;;;;;;;26.35;16.38;;;;;;;;;;5011201;28;20464;-80
2023/12/05 00:56:14;;;;;;;28.02;16.98;;;;;;;;;;5011059;28;20041;-81
2023/12/05 00:58:59;;;;;;;31.83;17.88;;;;;;;;;;5000314;28;20113;-81
2023/12/05 01:01:44;;;;;;;30.27;16.85;;;;;;;;;;5011464;28;20053;-81
2023/12/05 01:04:28;;;;;;;25.58;17.40;;;;;;;;;;5011619;28;20049;-80
2023/12/05 01:07:13;;;;;;;31.27;17.75;;;;;;;;;;5010937;28;20067;-80
2023/12/05 01:09:57;;;;;;;32.28;18.35;;;;;;;;;;5011060;28;20049;-81
2023/12/05 01:12:42;;;;;;;31.48;18.45;;;;;;;;;;5011450;28;20053;-80
2023/12/05 01:15:26;;;;;;;32.85;18.65;;;;;;;;;;5011212;28;20040;-80
2023/12/05 01:18:11;;;;;;;28.88;19.02;;;;;;;;;;5010963;28;20467;-81
2023/12/05 01:20:56;;;;;;;32.58;19.15;;;;;;;;;;4997553;28;20099;-80
2023/12/05 01:23:41;;;;;;;31.80;18.90;;;;;;;;;;5011419;28;20048;-81
2023/12/05 01:26:26;;;;;;;33.28;18.95;;;;;;;;;;5011610;28;20084;-80
2023/12/05 01:29:10;;;;;;;36.60;21.10;;;;;;;;;;5009530;28;20509;-80
2023/12/05 01:31:55;;;;;;;40.75;21.17;;;;;;;;;;5011344;28;20114;-80
2023/12/05 01:34:39;;;;;;;36.25;21.50;;;;;;;;;;5011094;28;20493;-81
2023/12/05 01:37:24;;;;;;;38.97;22.58;;;;;;;;;;5010690;28;20117;-80
2023/12/05 01:40:09;;;;;;;39.53;22.45;;;;;;;;;;5010763;28;20044;-81
2023/12/05 01:42:54;;;;;;;38.35;22.15;;;;;;;;;;5011039;28;20053;-80
2023/12/05 01:45:38;;;;;;;39.38;21.70;;;;;;;;;;5013941;28;20048;-80
2023/12/05 01:48:24;;;;;;;39.25;21.45;;;;;;;;;;5014159;28;20612;-80
2023/12/05 01:51:09;;;;;;;42.30;24.02;;;;;;;;;;5014145;28;20049;-80
2023/12/05 01:53:56;;;;;;;40.15;21.27;;;;;;;;;;5014624;28;20077;-81
2023/12/05 01:56:40;;;;;;;40.17;22.80;;;;;;;;;;5014485;28;20406;-80
2023/12/05 01:59:26;;;;;;;42.95;22.70;;;;;;;;;;5014086;28;20118;-80
2023/12/05 02:02:10;;;;;;;40.70;21.95;;;;;;;;;;5013888;28;20394;-80
2023/12/05 02:04:55;;;;;;;40.40;21.65;;;;;;;;;;5014332;28;20065;-81
2023/12/05 02:07:39;;;;;;;42.80;21.55;;;;;;;;;;5013514;28;20088;-81
2023/12/05 02:10:24;;;;;;;43.30;22.50;;;;;;;;;;5013513;28;20189;-81
2023/12/05 02:13:09;;;;;;;42.83;22.85;;;;;;;;;;5013843;28;20044;-81
2023/12/05 02:16:00;;;;;;;48.60;25.38;;;;;;;;;;5013384;28;20451;-81
2023/12/05 02:18:51;;;;;;;45.60;22.27;;;;;;;;;;5013996;28;20033;-81
2023/12/05 02:21:37;;;;;;;39.47;22.38;;;;;;;;;;4996825;28;20047;-81
2023/12/05 02:24:22;;;;;;;44.85;24.15;;;;;;;;;;5011549;28;20040;-81
2023/12/05 02:27:19;;;;;;;51.42;23.45;;;;;;;;;;5012625;28;20045;-83
2023/12/05 02:30:04;;;;;;;46.75;22.33;;;;;;;;;;5013973;28;20041;-82
2023/12/05 02:32:48;;;;;;;51.33;24.58;;;;;;;;;;5013904;28;20041;-81
2023/12/05 02:35:33;;;;;;;51.80;24.95;;;;;;;;;;5013738;28;20037;-82
2023/12/05 02:38:18;;;;;;;44.45;23.83;;;;;;;;;;5013367;28;20041;-83
2023/12/05 02:41:10;;;;;;;50.33;22.45;;;;;;;;;;5013711;28;20096;-82
2023/12/05 02:44:11;;;;;;;53.85;23.42;;;;;;;;;;5013726;28;20121;-82
2023/12/05 02:46:56;;;;;;;47.05;22.83;;;;;;;;;;5013743;28;20092;-83
2023/12/05 02:49:41;;;;;;;49.50;22.20;;;;;;;;;;5013446;28;20506;-83
2023/12/05 02:52:26;;;;;;;50.80;24.10;;;;;;;;;;5011625;28;20060;-84
2023/12/05 02:55:11;;;;;;;52.30;24.27;;;;;;;;;;5012975;28;20581;-84
2023/12/05 02:57:55;;;;;;;49.85;23.08;;;;;;;;;;5013078;28;20049;-85
2023/12/05 03:00:39;;;;;;;50.72;23.60;;;;;;;;;;5013476;28;20136;-86
2023/12/05 03:03:24;;;;;;;53.25;24.42;;;;;;;;;;5012738;28;20037;-86
2023/12/05 03:06:09;;;;;;;56.40;26.25;;;;;;;;;;5013331;28;20113;-85
2023/12/05 03:08:53;;;;;;;50.17;23.80;;;;;;;;;;5013146;28;20056;-87
2023/12/05 03:11:38;;;;;;;48.88;23.50;;;;;;;;;;5013179;28;20152;-86
2023/12/05 03:14:22;;;;;;;50.30;24.08;;;;;;;;;;5012569;28;20064;-86
2023/12/05 03:17:07;;;;;;;54.65;24.83;;;;;;;;;;5012147;28;20438;-86
2023/12/05 03:19:51;;;;;;;50.20;23.65;;;;;;;;;;5003473;28;20045;-86
2023/12/05 03:22:36;;;;;;;54.30;24.52;;;;;;;;;;5009990;28;20072;-86
2023/12/05 03:25:21;;;;;;;51.45;24.02;;;;;;;;;;5012557;28;20088;-87
2023/12/05 03:28:05;;;;;;;50.97;22.50;;;;;;;;;;5013093;28;20573;-87
2023/12/05 03:30:49;;;;;;;53.40;25.52;;;;;;;;;;5012638;28;20448;-86
2023/12/05 03:33:36;;;;;;;54.08;25.08;;;;;;;;;;5012315;28;20096;-86
2023/12/05 03:36:21;;;;;;;53.35;25.45;;;;;;;;;;5012131;28;20040;-85
2023/12/05 03:39:05;;;;;;;51.38;24.73;;;;;;;;;;5012734;28;20048;-86
2023/12/05 03:41:50;;;;;;;56.80;26.48;;;;;;;;;;5012700;28;20036;-85
2023/12/05 03:44:34;;;;;;;50.22;23.73;;;;;;;;;;5011987;28;20575;-86
2023/12/05 03:47:19;;;;;;;51.38;24.23;;;;;;;;;;5012055;28;20108;-85
2023/12/05 03:50:03;;;;;;;58.17;26.20;;;;;;;;;;5011590;28;20129;-85
2023/12/05 03:52:48;;;;;;;52.13;25.73;;;;;;;;;;5012157;28;20120;-85
2023/12/05 03:55:34;;;;;;;51.85;26.08;;;;;;;;;;5010920;28;20545;-85
2023/12/05 03:58:19;;;;;;;56.30;26.67;;;;;;;;;;5010766;28;20053;-84
2023/12/05 04:01:04;;;;;;;52.67;25.48;;;;;;;;;;5003387;28;20045;-85
2023/12/05 04:03:48;;;;;;;53.72;27.40;;;;;;;;;;4992616;28;20041;-85
2023/12/05 04:06:33;;;;;;;56.15;26.92;;;;;;;;;;4996001;28;20057;-86
2023/12/05 04:09:17;;;;;;;55.75;25.80;;;;;;;;;;5009822;28;20049;-84
2023/12/05 04:12:03;;;;;;;58.35;27.15;;;;;;;;;;5003331;28;20040;-84
2023/12/05 04:14:48;;;;;;;55.47;27.25;;;;;;;;;;5012003;28;20488;-84
2023/12/05 04:17:33;;;;;;;56.38;27.20;;;;;;;;;;5011388;28;20552;-83
2023/12/05 04:20:17;;;;;;;54.05;26.48;;;;;;;;;;5000783;28;20045;-85
2023/12/05 04:23:02;;;;;;;57.45;25.38;;;;;;;;;;5011846;28;20037;-84
2023/12/05 04:25:47;;;;;;;53.90;26.05;;;;;;;;;;4997300;28;20049;-84
2023/12/05 04:28:32;;;;;;;60.20;27.58;;;;;;;;;;5011470;28;20044;-84
2023/12/05 04:31:16;;;;;;;49.70;26.33;;;;;;;;;;5011778;28;20056;-83
2023/12/05 04:34:01;;;;;;;62.22;26.63;;;;;;;;;;5010927;28;20048;-83
2023/12/05 04:36:46;;;;;;;56.20;26.33;;;;;;;;;;4996243;28;20088;-83
2023/12/05 04:39:30;;;;;;;52.17;24.42;;;;;;;;;;5011301;28;20552;-84
2023/12/05 04:42:15;;;;;;;55.65;27.33;;;;;;;;;;5011723;28;20161;-84
2023/12/05 04:44:59;;;;;;;53.88;26.63;;;;;;;;;;5011576;28;20133;-84
2023/12/05 04:47:44;;;;;;;56.58;25.70;;;;;;;;;;5011298;28;20125;-83
2023/12/05 04:50:28;;;;;;;53.85;25.50;;;;;;;;;;5010881;28;20048;-83
2023/12/05 04:53:13;;;;;;;59.83;26.02;;;;;;;;;;5011339;28;20061;-83
2023/12/05 04:55:57;;;;;;;57.72;26.10;;;;;;;;;;5011662;28;20087;-83
2023/12/05 04:58:42;;;;;;;60.40;28.85;;;;;;;;;;5010915;28;20152;-84
2023/12/05 05:01:27;;;;;;;54.33;26.95;;;;;;;;;;5010995;28;20056;-84
2023/12/05 05:04:11;;;;;;;54.67;27.85;;;;;;;;;;5011480;28;20159;-83
2023/12/05 05:06:56;;;;;;;55.28;25.65;;;;;;;;;;5011577;28;20041;-83
2023/12/05 05:09:41;;;;;;;57.80;27.98;;;;;;;;;;5003542;28;20100;-83
2023/12/05 05:12:26;;;;;;;62.50;28.17;;;;;;;;;;5007255;28;20121;-83
2023/12/05 05:15:11;;;;;;;60.67;28.33;;;;;;;;;;5011492;28;20036;-83
2023/12/05 05:17:56;;;;;;;61.72;28.02;;;;;;;;;;5011272;28;20072;-83
2023/12/05 05:20:40;;;;;;;62.45;29.02;;;;;;;;;;5014034;28;20524;-83
2023/12/05 05:23:25;;;;;;;63.20;27.35;;;;;;;;;;5015188;28;20496;-83
2023/12/05 05:26:10;;;;;;;68.05;28.80;;;;;;;;;;5014130;28;20076;-83
2023/12/05 05:28:54;;;;;;;56.83;26.27;;;;;;;;;;5015139;28;20449;-83
2023/12/05 05:31:39;;;;;;;61.65;26.58;;;;;;;;;;5014674;28;20061;-82
2023/12/05 05:34:23;;;;;;;58.80;26.40;;;;;;;;;;5014889;28;20077;-83
2023/12/05 05:37:08;;;;;;;57.90;26.48;;;;;;;;;;5014975;28;20509;-84
2023/12/05 05:39:53;;;;;;;56.20;26.70;;;;;;;;;;5013474;28;20414;-83
2023/12/05 05:42:38;;;;;;;59.38;27.00;;;;;;;;;;5014471;28;20045;-82
2023/12/05 05:45:23;;;;;;;59.35;26.17;;;;;;;;;;5014763;28;20073;-83
2023/12/05 05:48:07;;;;;;;61.33;29.17;;;;;;;;;;5014850;28;20525;-82
2023/12/05 05:50:52;;;;;;;64.32;26.92;;;;;;;;;;5014221;28;20453;-83
2023/12/05 05:53:36;;;;;;;55.78;25.23;;;;;;;;;;5013673;28;20486;-83
2023/12/05 05:56:21;;;;;;;65.30;26.70;;;;;;;;;;5014729;28;20525;-83
2023/12/05 05:59:05;;;;;;;59.22;26.40;;;;;;;;;;5014735;28;20119;-83
2023/12/05 06:01:50;;;;;;;57.60;26.27;;;;;;;;;;5013945;28;20165;-83
2023/12/05 06:04:40;;;;;;;60.50;25.42;;;;;;;;;;5014074;28;20045;-83
2023/12/05 06:07:25;;;;;;;57.67;24.88;;;;;;;;;;5014512;28;20040;-83
2023/12/05 06:10:10;;;;;;;56.40;26.05;;;;;;;;;;5002949;28;20089;-83
2023/12/05 06:12:55;;;;;;;61.65;25.92;;;;;;;;;;5000277;28;20036;-83
2023/12/05 06:15:39;;;;;;;55.53;25.88;;;;;;;;;;5013686;28;20173;-83
2023/12/05 06:18:24;;;;;;;57.08;26.65;;;;;;;;;;5014367;28;20402;-83
2023/12/05 06:21:09;;;;;;;58.38;26.73;;;;;;;;;;5014044;28;20064;-82
2023/12/05 06:23:54;;;;;;;61.67;25.80;;;;;;;;;;5013649;28;20104;-83
2023/12/05 06:26:38;;;;;;;68.75;26.95;;;;;;;;;;5013603;28;20120;-83
2023/12/05 06:29:23;;;;;;;63.03;27.17;;;;;;;;;;5013882;28;20044;-83
2023/12/05 06:32:07;;;;;;;62.80;27.60;;;;;;;;;;5012962;28;20103;-83
2023/12/05 06:34:52;;;;;;;64.93;26.98;;;;;;;;;;5012474;28;20045;-83
2023/12/05 06:37:36;;;;;;;58.88;25.83;;;;;;;;;;5013385;28;20409;-85
2023/12/05 06:40:21;;;;;;;60.38;27.02;;;;;;;;;;5013949;28;20092;-83
2023/12/05 06:43:05;;;;;;;56.33;25.10;;;;;;;;;;5013777;28;20040;-83
2023/12/05 06:45:50;;;;;;;56.75;25.05;;;;;;;;;;5013266;28;20121;-83
2023/12/05 06:48:34;;;;;;;62.67;26.42;;;;;;;;;;5012580;28;20108;-83
2023/12/05 06:51:19;;;;;;;50.70;24.52;;;;;;;;;;5013527;28;20045;-84
2023/12/05 06:54:04;;;;;;;56.17;24.13;;;;;;;;;;5013721;28;20612;-83
2023/12/05 06:56:48;;;;;;;57.75;25.52;;;;;;;;;;5012928;28;20083;-84
2023/12/05 06:59:34;;;;;;;57.15;24.27;;;;;;;;;;5013557;28;20095;-83
2023/12/05 07:02:19;;;;;;;58.25;26.90;;;;;;;;;;5013365;28;20084;-83
2023/12/05 07:05:04;;;;;;;61.53;25.55;;;;;;;;;;5013088;28;20045;-83
2023/12/05 07:07:48;;;;;;;56.75;26.02;;;;;;;;;;5012936;28;20087;-83
2023/12/05 07:10:33;;;;;;;58.85;25.85;;;;;;;;;;4998233;28;20046;-83
2023/12/05 07:13:17;;;;;;;60.25;26.75;;;;;;;;;;5013224;28;20048;-84
2023/12/05 07:16:02;;;;;;;67.50;27.58;;;;;;;;;;4997839;28;20057;-84
2023/12/05 07:18:49;;;;;;;60.97;26.77;;;;;;;;;;5012654;28;20045;-83
2023/12/05 07:21:33;;;;;;;57.92;25.25;;;;;;;;;;5013261;28;20045;-83
2023/12/05 07:24:18;;;;;;;61.75;27.20;;;;;;;;;;5012787;28;20088;-84
2023/12/05 07:27:03;;;;;;;59.45;26.80;;;;;;;;;;5012553;28;20118;-83
2023/12/05 07:29:48;;;;;;;65.60;27.05;;;;;;;;;;5011274;28;20441;-84
2023/12/05 07:32:32;;;;;;;68.18;27.08;;;;;;;;;;5012856;28;20092;-83
2023/12/05 07:35:17;;;;;;;65.47;25.42;;;;;;;;;;5012857;28;20045;-83
2023/12/05 07:38:01;;;;;;;60.38;27.25;;;;;;;;;;5011202;28;20041;-83
2023/12/05 07:40:46;;;;;;;66.55;26.70;;;;;;;;;;5012311;28;20114;-84
2023/12/05 07:43:30;;;;;;;61.17;27.10;;;;;;;;;;5012267;28;20096;-83
2023/12/05 07:46:15;;;;;;;55.70;24.65;;;;;;;;;;5012425;28;20130;-83
2023/12/05 07:49:00;;;;;;;58.08;27.20;;;;;;;;;;5012022;28;20041;-84
2023/12/05 07:51:44;;;;;;;58.28;26.05;;;;;;;;;;5012126;28;20096;-85
2023/12/05 07:54:29;;;;;;;54.70;27.52;;;;;;;;;;5011195;28;20060;-83
2023/12/05 07:57:14;;;;;;;63.13;26.10;;;;;;;;;;5012577;28;20509;-83
2023/12/05 08:00:01;;;;;;;60.00;28.10;;;;;;;;;;5011839;28;20535;-83
2023/12/05 08:02:47;;;;;;;52.80;22.55;;;;;;;;;;5011952;28;20129;-86
2023/12/05 08:05:32;;;;;;;60.40;24.83;;;;;;;;;;5012225;28;20489;-83
2023/12/05 08:08:16;;;;;;;58.42;25.15;;;;;;;;;;5012374;28;20176;-84
2023/12/05 08:11:01;;;;;;;56.55;25.52;;;;;;;;;;4997876;28;20168;-84
2023/12/05 08:13:47;;;;;;;59.47;24.98;;;;;;;;;;5012119;28;20427;-84
2023/12/05 08:16:32;;;;;;;60.55;27.95;;;;;;;;;;5012020;28;20053;-83
2023/12/05 08:19:16;;;;;;;57.38;26.33;;;;;;;;;;5011720;28;20100;-83
2023/12/05 08:22:01;;;;;;;50.38;24.42;;;;;;;;;;5011423;28;20044;-83
2023/12/05 08:24:45;;;;;;;55.60;25.33;;;;;;;;;;5011692;28;20528;-83
2023/12/05 08:27:32;;;;;;;58.92;25.13;;;;;;;;;;5011628;28;20052;-83
2023/12/05 08:30:17;;;;;;;52.45;24.23;;;;;;;;;;5011721;28;20057;-82
2023/12/05 08:33:01;;;;;;;54.95;25.50;;;;;;;;;;5011068;28;20048;-83
2023/12/05 08:35:46;;;;;;;59.88;26.60;;;;;;;;;;5010748;28;20541;-82
2023/12/05 08:38:30;;;;;;;56.45;25.27;;;;;;;;;;5010536;28;20052;-82
2023/12/05 08:41:18;;;;;;;55.90;24.65;;;;;;;;;;5010299;28;20041;-83
2023/12/05 08:44:03;;;;;;;56.38;24.33;;;;;;;;;;5011087;28;20119;-84
2023/12/05 08:46:48;;;;;;;55.65;25.65;;;;;;;;;;5011158;28;20041;-82
2023/12/05 08:49:32;;;;;;;52.40;25.23;;;;;;;;;;5011546;28;20092;-83
2023/12/05 08:52:17;;;;;;;64.50;27.02;;;;;;;;;;5011695;28;20088;-83
2023/12/05 08:55:02;;;;;;;57.25;28.80;;;;;;;;;;5010332;28;20061;-83
2023/12/05 08:57:46;;;;;;;56.08;24.42;;;;;;;;;;5011665;28;20048;-82
2023/12/05 09:00:31;;;;;;;53.78;25.90;;;;;;;;;;5011554;28;20041;-82
2023/12/05 09:03:16;;;;;;;53.97;24.08;;;;;;;;;;4996081;28;20045;-82
2023/12/05 09:06:00;;;;;;;51.38;26.35;;;;;;;;;;5011073;28;20397;-83
2023/12/05 09:08:45;;;;;;;56.30;25.25;;;;;;;;;;5011367;28;20088;-83
2023/12/05 09:11:29;;;;;;;51.85;25.42;;;;;;;;;;4999183;28;20056;-83
2023/12/05 09:14:14;;;;;;;52.75;24.55;;;;;;;;;;5010885;28;20881;-83
2023/12/05 09:16:59;;;;;;;55.72;25.08;;;;;;;;;;5011001;28;20041;-82
2023/12/05 09:19:43;;;;;;;51.17;24.92;;;;;;;;;;5011499;28;20049;-83
2023/12/05 09:22:28;;;;;;;54.70;25.23;;;;;;;;;;5011216;28;20045;-82
2023/12/05 09:25:12;;;;;;;58.08;25.85;;;;;;;;;;5010941;28;20045;-82
2023/12/05 09:27:57;;;;;;;60.15;24.73;;;;;;;;;;5009728;28;20497;-82
2023/12/05 09:30:42;;;;;;;59.13;25.25;;;;;;;;;;5011227;28;20052;-82
2023/12/05 09:33:26;;;;;;;55.20;27.10;;;;;;;;;;5010342;28;20040;-83
2023/12/05 09:36:10;;;;;;;55.10;25.55;;;;;;;;;;5009639;28;20117;-82
2023/12/05 09:38:55;;;;;;;55.28;25.88;;;;;;;;;;5010980;28;20092;-84
2023/12/05 09:41:43;;;;;;;61.47;26.63;;;;;;;;;;5011116;28;20037;-82
2023/12/05 09:44:29;;;;;;;54.00;25.23;;;;;;;;;;5010235;28;20087;-82
2023/12/05 09:47:19;;;;;;;52.55;26.10;;;;;;;;;;4999406;28;20040;-82
2023/12/05 09:50:04;;;;;;;51.30;25.00;;;;;;;;;;5010432;28;20072;-82
2023/12/05 09:52:49;;;;;;;54.75;26.10;;;;;;;;;;5009897;28;20073;-82
2023/12/05 09:55:34;;;;;;;56.00;24.73;;;;;;;;;;5010045;28;20497;-83
2023/12/05 09:58:18;;;;;;;52.92;25.30;;;;;;;;;;5010494;28;20619;-82
2023/12/05 10:01:04;;;;;;;54.17;24.55;;;;;;;;;;5010602;28;20048;-83
2023/12/05 10:03:54;;;;;;;54.50;26.08;;;;;;;;;;5010795;28;20045;-82
2023/12/05 10:06:40;;;;;;;57.22;28.05;;;;;;;;;;5013533;28;20092;-83
2023/12/05 10:09:26;;;;;;;50.92;25.08;;;;;;;;;;5008981;28;20053;-83
2023/12/05 10:12:11;;;;;;;54.45;25.25;;;;;;;;;;5007987;28;20398;-84
2023/12/05 10:14:56;;;;;;;50.45;23.92;;;;;;;;;;5003410;28;20056;-82
2023/12/05 10:17:42;;;;;;;52.33;24.50;;;;;;;;;;5014039;28;20041;-82
2023/12/05 10:20:26;;;;;;;50.50;24.77;;;;;;;;;;5013020;28;20092;-83
2023/12/05 10:23:11;;;;;;;57.33;26.17;;;;;;;;;;5013747;28;20100;-82
2023/12/05 10:25:55;;;;;;;52.08;24.35;;;;;;;;;;5013119;28;20550;-82
2023/12/05 10:28:53;;;;;;;52.97;25.67;;;;;;;;;;5014107;28;20088;-83
2023/12/05 10:31:37;;;;;;;47.63;24.92;;;;;;;;;;5013180;28;20461;-83
2023/12/05 10:34:22;;;;;;;57.63;25.85;;;;;;;;;;5013418;28;20609;-82
2023/12/05 10:37:06;;;;;;;46.85;24.17;;;;;;;;;;5013319;28;20056;-82
2023/12/05 10:39:55;;;;;;;52.25;26.77;;;;;;;;;;5012722;28;20040;-82
2023/12/05 10:42:40;;;;;;;50.85;25.55;;;;;;;;;;5013837;28;20429;-82
2023/12/05 10:45:25;;;;;;;48.47;25.77;;;;;;;;;;5013363;28;20040;-83
2023/12/05 10:48:11;;;;;;;48.03;24.60;;;;;;;;;;5012097;28;20079;-82
2023/12/05 10:50:56;;;;;;;52.88;26.85;;;;;;;;;;5012671;28;20186;-82
2023/12/05 10:53:41;;;;;;;43.33;23.85;;;;;;;;;;5013270;28;20097;-82
2023/12/05 10:56:28;;;;;;;52.30;25.40;;;;;;;;;;5012936;28;20028;-82
2023/12/05 10:59:12;;;;;;;49.53;25.35;;;;;;;;;;5013091;28;20537;-82
2023/12/05 11:01:58;;;;;;;50.15;24.75;;;;;;;;;;5013361;28;20395;-82
2023/12/05 11:04:43;;;;;;;53.58;24.88;;;;;;;;;;5013495;28;20033;-83
2023/12/05 11:07:27;;;;;;;49.03;23.48;;;;;;;;;;5012964;28;20081;-82
2023/12/05 11:10:12;;;;;;;50.28;24.25;;;;;;;;;;5001212;28;20088;-82
2023/12/05 11:12:58;;;;;;;50.58;25.48;;;;;;;;;;4999969;28;20076;-82
2023/12/05 11:15:44;;;;;;;49.75;24.45;;;;;;;;;;5013026;28;20429;-82
2023/12/05 11:18:43;;;;;;;47.75;23.88;;;;;;;;;;5012039;28;20528;-82
2023/12/05 11:21:43;;;;;;;54.85;25.70;;;;;;;;;;5012620;28;20040;-81
2023/12/05 11:24:41;;;;;;;50.08;25.23;;;;;;;;;;5012427;28;20095;-82
2023/12/05 11:27:36;;;;;;;51.88;27.73;;;;;;;;;;5012441;28;20154;-82
2023/12/05 11:30:24;;;;;;;52.30;24.95;;;;;;;;;;5002316;28;20418;-81
2023/12/05 11:33:31;;;;;;;49.83;24.52;;;;;;;;;;5012689;28;20048;-86
2023/12/05 11:36:36;;;;;;;55.00;25.27;;;;;;;;;;5012210;28;20058;-82
2023/12/05 11:39:20;;;;;;;49.75;25.13;;;;;;;;;;5012346;28;20091;-82
2023/12/05 11:42:14;;;;;;;55.20;26.75;;;;;;;;;;5012687;28;20045;-82
2023/12/05 11:44:58;;;;;;;53.75;26.30;;;;;;;;;;5012526;28;20451;-82
2023/12/05 11:47:43;;;;;;;50.05;24.83;;;;;;;;;;5012693;28;20040;-83
2023/12/05 11:50:27;;;;;;;50.38;25.00;;;;;;;;;;5011046;28;20091;-82
2023/12/05 11:53:13;;;;;;;51.05;24.13;;;;;;;;;;5010926;28;20056;-85
2023/12/05 11:55:57;;;;;;;49.97;23.55;;;;;;;;;;5012552;28;20049;-81
2023/12/05 11:58:42;;;;;;;55.67;26.58;;;;;;;;;;5012186;28;20076;-82
2023/12/05 12:01:27;;;;;;;54.25;25.67;;;;;;;;;;5011909;28;20064;-82
2023/12/05 12:04:21;;;;;;;49.53;24.55;;;;;;;;;;5012347;28;20544;-82
2023/12/05 12:07:06;;;;;;;58.70;26.45;;;;;;;;;;5011181;28;20064;-81
2023/12/05 12:09:50;;;;;;;55.40;25.63;;;;;;;;;;5003469;28;20053;-82
2023/12/05 12:12:35;;;;;;;56.35;25.27;;;;;;;;;;5009053;28;20080;-82
2023/12/05 12:15:23;;;;;;;55.75;25.38;;;;;;;;;;5010577;28;20044;-82
2023/12/05 12:18:09;;;;;;;53.35;26.00;;;;;;;;;;5012156;28;20058;-82
2023/12/05 12:20:54;;;;;;;62.42;27.40;;;;;;;;;;5010992;28;20048;-82
2023/12/05 12:23:39;;;;;;;64.00;27.27;;;;;;;;;;5011404;28;20068;-82
2023/12/05 12:26:23;;;;;;;56.30;26.58;;;;;;;;;;5010372;28;20040;-82
2023/12/05 12:29:11;;;;;;;58.33;25.75;;;;;;;;;;5011102;28;20077;-81
2023/12/05 12:32:06;;;;;;;67.05;26.13;;;;;;;;;;5011877;28;20096;-81
2023/12/05 12:34:51;;;;;;;65.68;27.65;;;;;;;;;;5011678;28;20033;-82
2023/12/05 12:37:38;;;;;;;61.50;26.35;;;;;;;;;;5011364;28;20165;-82
2023/12/05 12:40:22;;;;;;;66.82;27.70;;;;;;;;;;5010241;28;20045;-82
2023/12/05 12:43:08;;;;;;;64.47;25.70;;;;;;;;;;5011655;28;20041;-82
2023/12/05 12:45:52;;;;;;;66.50;29.73;;;;;;;;;;5011524;28;20084;-82
2023/12/05 12:48:37;;;;;;;73.00;28.95;;;;;;;;;;5010133;28;20458;-82
2023/12/05 12:51:22;;;;;;;66.18;28.20;;;;;;;;;;5011087;28;20112;-82
2023/12/05 12:54:07;;;;;;;64.70;29.15;;;;;;;;;;5011559;28;20065;-83
2023/12/05 12:56:53;;;;;;;68.70;28.55;;;;;;;;;;5011322;28;20040;-82
2023/12/05 12:59:40;;;;;;;72.25;30.30;;;;;;;;;;5011122;28;20500;-83
2023/12/05 13:02:25;;;;;;;65.63;27.70;;;;;;;;;;5011271;28;20045;-82
2023/12/05 13:05:09;;;;;;;69.38;28.92;;;;;;;;;;5011297;28;20117;-82
2023/12/05 13:07:54;;;;;;;57.03;27.38;;;;;;;;;;5011643;28;20552;-82
2023/12/05 13:10:41;;;;;;;66.40;28.48;;;;;;;;;;4996987;28;20134;-82
2023/12/05 13:13:26;;;;;;;60.75;27.48;;;;;;;;;;5009963;28;20081;-83
2023/12/05 13:16:11;;;;;;;65.38;29.42;;;;;;;;;;5011336;28;20406;-83
2023/12/05 13:18:56;;;;;;;66.38;29.65;;;;;;;;;;5011485;28;20402;-81
2023/12/05 13:21:40;;;;;;;59.88;27.52;;;;;;;;;;4999350;28;20532;-82
2023/12/05 13:24:25;;;;;;;64.35;27.73;;;;;;;;;;5010745;28;20041;-82
2023/12/05 13:27:10;;;;;;;64.47;30.38;;;;;;;;;;5011381;28;20045;-82
2023/12/05 13:29:54;;;;;;;62.63;26.52;;;;;;;;;;5010219;28;20044;-82
2023/12/05 13:32:39;;;;;;;66.40;29.30;;;;;;;;;;5010680;28;20065;-82
2023/12/05 13:35:24;;;;;;;62.13;26.75;;;;;;;;;;5011175;28;20506;-85
2023/12/05 13:38:08;;;;;;;63.53;28.33;;;;;;;;;;5010316;28;20040;-82
2023/12/05 13:40:53;;;;;;;61.95;26.17;;;;;;;;;;5012942;28;20074;-81
2023/12/05 13:43:37;;;;;;;62.72;29.77;;;;;;;;;;5014508;28;20525;-81
2023/12/05 13:46:23;;;;;;;64.90;27.98;;;;;;;;;;5013613;28;20040;-82
2023/12/05 13:49:08;;;;;;;64.50;29.27;;;;;;;;;;5005156;28;20048;-81
2023/12/05 13:51:53;;;;;;;59.58;27.45;;;;;;;;;;5014714;28;20084;-82
2023/12/05 13:54:37;;;;;;;68.40;31.02;;;;;;;;;;5012938;28;20091;-82
2023/12/05 13:57:22;;;;;;;68.85;29.23;;;;;;;;;;5014721;28;20096;-82
2023/12/05 14:00:08;;;;;;;57.72;27.77;;;;;;;;;;5014535;28;20084;-82
2023/12/05 14:02:53;;;;;;;67.22;28.88;;;;;;;;;;5013758;28;20425;-82
2023/12/05 14:05:37;;;;;;;76.50;35.95;;;;;;;;;;5013938;28;20092;-82
2023/12/05 14:08:22;;;;;;;71.55;31.48;;;;;;;;;;5014444;28;20100;-82
2023/12/05 14:11:06;;;;;;;85.13;35.78;;;;;;;;;;4999610;28;20411;-81
2023/12/05 14:13:51;;;;;;;84.10;36.95;;;;;;;;;;5012932;28;20045;-82
2023/12/05 14:16:35;;;;;;;97.53;43.90;;;;;;;;;;5012959;28;20533;-82
2023/12/05 14:19:19;;;;;;;74.57;33.58;;;;;;;;;;5014197;28;20045;-82
2023/12/05 14:22:04;;;;;;;94.82;43.05;;;;;;;;;;5014310;28;20085;-82
2023/12/05 14:24:48;;;;;;;71.88;33.25;;;;;;;;;;5012793;28;20061;-82
2023/12/05 14:27:33;;;;;;;66.82;31.50;;;;;;;;;;5013565;28;20056;-81
2023/12/05 14:30:18;;;;;;;64.40;28.40;;;;;;;;;;5014236;28;20049;-82
2023/12/05 14:33:03;;;;;;;108.03;46.20;;;;;;;;;;5012878;28;20042;-81
2023/12/05 14:35:47;;;;;;;75.88;34.58;;;;;;;;;;5013597;28;20052;-81
2023/12/05 14:38:32;;;;;;;88.30;39.40;;;;;;;;;;5012623;28;20104;-85
2023/12/05 14:41:17;;;;;;;106.47;47.90;;;;;;;;;;5013818;28;20053;-82
2023/12/05 14:44:02;;;;;;;95.15;41.35;;;;;;;;;;5013955;28;20500;-82
2023/12/05 14:46:47;;;;;;;116.47;48.25;;;;;;;;;;5012174;28;20122;-82
2023/12/05 14:49:32;;;;;;;68.72;30.98;;;;;;;;;;5013231;28;20620;-85
2023/12/05 14:52:16;;;;;;;95.82;42.47;;;;;;;;;;5012718;28;20076;-81
2023/12/05 14:55:01;;;;;;;85.53;38.70;;;;;;;;;;5013822;28;20061;-82
2023/12/05 14:57:45;;;;;;;75.97;31.65;;;;;;;;;;5012811;28;20088;-83
2023/12/05 15:00:30;;;;;;;71.25;34.30;;;;;;;;;;5006817;28;20097;-82
2023/12/05 15:03:14;;;;;;;79.75;38.42;;;;;;;;;;5007864;28;20036;-81
2023/12/05 15:05:59;;;;;;;73.45;31.33;;;;;;;;;;5013283;28;20040;-81
2023/12/05 15:08:44;;;;;;;72.53;32.67;;;;;;;;;;5012731;28;20041;-82
2023/12/05 15:11:31;;;;;;;72.40;32.28;;;;;;;;;;5001652;28;20544;-81
2023/12/05 15:14:16;;;;;;;73.85;33.50;;;;;;;;;;5013090;28;20041;-82
2023/12/05 15:17:03;;;;;;;71.20;34.92;;;;;;;;;;5013146;28;20100;-82
2023/12/05 15:19:48;;;;;;;76.95;33.25;;;;;;;;;;5012724;28;20117;-82
2023/12/05 15:22:32;;;;;;;67.13;33.78;;;;;;;;;;5012838;28;20084;-82
2023/12/05 15:25:17;;;;;;;77.80;34.95;;;;;;;;;;5013142;28;20181;-82
2023/12/05 15:28:02;;;;;;;80.07;34.78;;;;;;;;;;5012639;28;20037;-82
2023/12/05 15:30:46;;;;;;;74.72;33.38;;;;;;;;;;5012516;28;20057;-81
2023/12/05 15:33:31;;;;;;;70.13;30.05;;;;;;;;;;5012024;28;20045;-81
2023/12/05 15:36:15;;;;;;;72.55;33.13;;;;;;;;;;5012704;28;20100;-83
2023/12/05 15:39:00;;;;;;;82.22;33.00;;;;;;;;;;5012322;28;20123;-81
2023/12/05 15:41:44;;;;;;;69.53;30.90;;;;;;;;;;5011858;28;20064;-82
2023/12/05 15:44:29;;;;;;;77.88;34.33;;;;;;;;;;5012647;28;20113;-82
2023/12/05 15:47:13;;;;;;;74.10;35.90;;;;;;;;;;5000509;28;20401;-82
2023/12/05 15:49:58;;;;;;;71.35;32.30;;;;;;;;;;5011754;28;20096;-81
2023/12/05 15:52:43;;;;;;;84.75;36.78;;;;;;;;;;5012109;28;20045;-82
2023/12/05 15:55:27;;;;;;;98.47;49.22;;;;;;;;;;5011629;28;20056;-82
2023/12/05 15:58:12;;;;;;;77.03;32.78;;;;;;;;;;5012122;28;20037;-83
2023/12/05 16:00:57;;;;;;;85.03;34.22;;;;;;;;;;5011964;28;20052;-82